Time;durP1;ratioP1;P1;durP2;ratioP2;P2;SDS_P1;SDS_P2;PMS_P1;PMS_P2;Temp;Humidity;BMP_temperature;BMP_pressure;BME280_temperature;BME280_humidity;BME280_pressure;Samples;Min_cycle;Max_cycle;Signal;HPM_P1;HPM_P2
2022/09/25 00:01:11;;;;;;;5.70;3.10;;;9.00;99.90;;;;;;5045354;28;20048;-81
2022/09/25 00:03:38;;;;;;;7.63;1.80;;;9.00;99.90;;;;;;5006210;28;20038;-81
2022/09/25 00:06:22;;;;;;;10.70;2.70;;;9.00;99.90;;;;;;4993256;28;20037;-82
2022/09/25 00:08:48;;;;;;;8.85;2.33;;;9.00;99.90;;;;;;5031035;28;20042;-82
2022/09/25 00:11:23;;;;;;;6.38;2.47;;;8.90;99.90;;;;;;5029412;28;20373;-81
2022/09/25 00:13:49;;;;;;;6.57;2.03;;;9.00;99.90;;;;;;5010955;28;20060;-82
2022/09/25 00:16:18;;;;;;;9.95;2.08;;;8.90;99.90;;;;;;5015398;28;20049;-82
2022/09/25 00:21:30;;;;;;;9.32;2.28;;;8.90;99.90;;;;;;5034211;28;20068;-81
2022/09/25 00:24:05;;;;;;;6.20;2.05;;;8.90;99.90;;;;;;5026280;28;20049;-81
2022/09/25 00:26:32;;;;;;;6.43;2.03;;;8.90;99.90;;;;;;5033342;28;20499;-82
2022/09/25 00:29:01;;;;;;;5.40;2.17;;;8.90;99.90;;;;;;5015427;28;20496;-81
2022/09/25 00:31:28;;;;;;;4.13;1.92;;;8.80;99.90;;;;;;5035479;28;20041;-82
2022/09/25 00:33:57;;;;;;;4.93;2.00;;;8.80;99.90;;;;;;5033519;28;20061;-81
2022/09/25 00:36:22;;;;;;;7.65;2.20;;;8.80;99.90;;;;;;5019338;28;20515;-81
2022/09/25 00:38:49;;;;;;;8.05;2.55;;;8.80;99.90;;;;;;5035183;28;20080;-81
2022/09/25 00:41:17;;;;;;;4.97;2.40;;;8.80;99.90;;;;;;5050899;28;20406;-82
2022/09/25 00:43:49;;;;;;;6.70;3.53;;;8.80;99.90;;;;;;5005308;28;20152;-81
2022/09/25 00:46:38;;;;;;;6.47;2.17;;;8.80;99.90;;;;;;5027391;28;20045;-80
2022/09/25 00:49:21;;;;;;;4.32;2.30;;;8.90;99.90;;;;;;5015419;28;20484;-81
2022/09/25 00:51:55;;;;;;;7.00;2.00;;;8.90;99.90;;;;;;5035000;28;20050;-82
2022/09/25 00:54:52;;;;;;;8.13;2.22;;;8.90;99.90;;;;;;4996230;28;20467;-81
2022/09/25 00:57:25;;;;;;;9.30;3.08;;;8.90;99.90;;;;;;5009327;28;20524;-81
2022/09/25 00:59:56;;;;;;;8.35;3.15;;;8.80;99.90;;;;;;5006393;28;20060;-81
2022/09/25 01:02:36;;;;;;;3.35;2.35;;;8.80;99.90;;;;;;5016324;28;20391;-81
2022/09/25 01:05:08;;;;;;;7.32;2.42;;;8.80;99.90;;;;;;5032448;28;20049;-80
2022/09/25 01:07:36;;;;;;;;;;;8.80;99.90;;;;;;5035056;28;20048;-83
2022/09/25 01:10:04;;;;;;;7.85;1.98;;;8.70;99.90;;;;;;5035451;28;19928;-81
2022/09/25 01:12:30;;;;;;;7.32;2.30;;;8.70;99.90;;;;;;5029999;28;20053;-81
2022/09/25 01:14:56;;;;;;;6.60;2.60;;;8.70;99.90;;;;;;5018045;28;20041;-81
2022/09/25 01:17:28;;;;;;;3.22;2.05;;;8.60;99.90;;;;;;5018848;28;20044;-81
2022/09/25 01:20:35;;;;;;;11.73;2.47;;;8.60;99.90;;;;;;5018113;28;20495;-82
2022/09/25 01:23:09;;;;;;;3.30;1.65;;;8.60;99.90;;;;;;4946086;28;20146;-85
2022/09/25 01:25:56;;;;;;;5.05;1.85;;;8.50;99.90;;;;;;5013739;28;20084;-81
2022/09/25 01:28:43;;;;;;;7.15;1.98;;;8.50;99.90;;;;;;5016121;28;20483;-82
2022/09/25 01:31:20;;;;;;;5.18;1.73;;;8.50;99.90;;;;;;5006661;28;20360;-82
2022/09/25 01:33:59;;;;;;;7.38;2.15;;;8.50;99.90;;;;;;5013772;28;20037;-81
2022/09/25 01:36:29;;;;;;;3.03;1.83;;;8.50;99.90;;;;;;5015022;28;20479;-81
2022/09/25 01:39:17;;;;;;;3.33;2.22;;;8.50;99.90;;;;;;4998342;28;20054;-81
2022/09/25 01:42:05;;;;;;;5.00;2.00;;;8.40;99.90;;;;;;5013903;28;20060;-81
2022/09/25 01:44:42;;;;;;;3.50;2.33;;;8.40;99.90;;;;;;5030276;28;20057;-81
2022/09/25 01:47:21;;;;;;;9.93;2.45;;;8.40;99.90;;;;;;5032423;28;20049;-81
2022/09/25 01:49:55;;;;;;;7.35;2.10;;;8.40;99.90;;;;;;4998077;28;20053;-81
2022/09/25 01:52:27;;;;;;;4.20;1.80;;;8.40;99.90;;;;;;4999828;28;20049;-81
2022/09/25 01:55:01;;;;;;;7.43;1.90;;;8.40;99.90;;;;;;5028079;28;20052;-81
2022/09/25 01:57:33;;;;;;;7.82;2.33;;;8.30;99.90;;;;;;5016953;28;20052;-80
2022/09/25 02:00:08;;;;;;;7.00;1.95;;;8.30;99.90;;;;;;5017723;28;20053;-81
2022/09/25 02:02:43;;;;;;;5.07;2.08;;;8.30;99.90;;;;;;5015370;28;20096;-83
2022/09/25 02:05:21;;;;;;;4.38;2.08;;;8.30;99.90;;;;;;5017334;28;20041;-81
2022/09/25 02:07:55;;;;;;;8.00;2.30;;;8.20;99.90;;;;;;5027838;28;20135;-80
2022/09/25 02:10:26;;;;;;;5.03;2.08;;;8.20;99.90;;;;;;5014531;28;20045;-81
2022/09/25 02:12:55;;;;;;;6.25;2.60;;;8.20;99.90;;;;;;5031246;28;20108;-81
2022/09/25 02:15:29;;;;;;;3.50;1.85;;;8.10;99.90;;;;;;5048236;28;20056;-82
2022/09/25 02:21:19;;;;;;;3.20;1.50;;;8.20;99.90;;;;;;5021499;28;20081;-80
2022/09/25 02:23:52;;;;;;;4.93;1.80;;;8.20;99.90;;;;;;4976696;28;20412;-80
2022/09/25 02:26:28;;;;;;;4.38;1.85;;;8.10;99.90;;;;;;5013512;28;20132;-81
2022/09/25 02:28:55;;;;;;;6.90;1.98;;;8.10;99.90;;;;;;5048680;28;20041;-81
2022/09/25 02:31:27;;;;;;;3.75;1.77;;;8.10;99.90;;;;;;5031567;28;20045;-81
2022/09/25 02:33:53;;;;;;;4.93;1.80;;;8.00;99.90;;;;;;5044657;28;20057;-80
2022/09/25 02:36:20;;;;;;;7.00;1.70;;;8.00;99.90;;;;;;5044743;28;20056;-81
2022/09/25 02:38:48;;;;;;;3.70;2.00;;;8.00;99.90;;;;;;4996884;28;20140;-80
2022/09/25 02:41:43;;;;;;;4.63;1.92;;;8.00;99.90;;;;;;5026952;28;20435;-80
2022/09/25 02:44:46;;;;;;;6.63;2.95;;;8.00;99.90;;;;;;5019106;28;20049;-80
2022/09/25 02:47:27;;;;;;;6.55;1.80;;;8.00;99.90;;;;;;5025233;28;20380;-80
2022/09/25 02:50:15;;;;;;;4.70;1.85;;;8.00;99.90;;;;;;5030371;28;20053;-81
2022/09/25 02:52:57;;;;;;;4.57;1.70;;;8.00;99.90;;;;;;5032429;28;20045;-80
2022/09/25 02:55:36;;;;;;;8.02;2.30;;;7.90;99.90;;;;;;5028369;28;20087;-81
2022/09/25 02:58:34;;;;;;;2.58;1.92;;;7.90;99.90;;;;;;5014336;28;20049;-82
2022/09/25 03:01:02;;;;;;;3.90;1.45;;;7.80;99.90;;;;;;4996664;28;20058;-79
2022/09/25 03:03:30;;;;;;;3.70;1.75;;;7.90;99.90;;;;;;5030191;28;20057;-81
2022/09/25 03:05:57;;;;;;;4.00;2.17;;;7.80;99.90;;;;;;5045908;28;20092;-80
2022/09/25 03:08:36;;;;;;;4.45;2.20;;;7.80;99.90;;;;;;5046753;28;20049;-80
2022/09/25 03:11:06;;;;;;;3.58;1.85;;;7.80;99.90;;;;;;5013998;28;20049;-80
2022/09/25 03:13:32;;;;;;;3.90;1.42;;;7.80;99.90;;;;;;5014167;28;20135;-80
2022/09/25 03:16:17;;;;;;;4.13;1.50;;;7.80;99.90;;;;;;5007099;28;20484;-80
2022/09/25 03:18:43;;;;;;;4.45;2.33;;;7.80;99.90;;;;;;4995741;28;20372;-80
2022/09/25 03:21:09;;;;;;;6.68;2.78;;;7.80;99.90;;;;;;5029072;28;20049;-80
2022/09/25 03:23:34;;;;;;;4.60;1.77;;;7.80;99.90;;;;;;5035495;28;20029;-80
2022/09/25 03:26:00;;;;;;;4.35;1.48;;;7.80;99.90;;;;;;5012470;28;20049;-81
2022/09/25 03:28:26;;;;;;;3.08;1.80;;;7.80;99.90;;;;;;5033500;28;20049;-81
2022/09/25 03:31:02;;;;;;;3.47;1.33;;;7.80;99.90;;;;;;5017442;28;20049;-81
2022/09/25 03:33:34;;;;;;;4.75;1.63;;;7.80;99.90;;;;;;5017446;28;20447;-80
2022/09/25 03:36:08;;;;;;;5.45;1.60;;;7.80;99.90;;;;;;5045693;28;20522;-82
2022/09/25 03:38:34;;;;;;;5.72;1.73;;;7.80;99.90;;;;;;5028071;28;20077;-82
2022/09/25 03:41:00;;;;;;;5.50;1.45;;;7.70;99.90;;;;;;5020296;28;20468;-81
2022/09/25 03:43:27;;;;;;;2.75;1.40;;;7.70;99.90;;;;;;5036417;28;20044;-81
2022/09/25 03:45:52;;;;;;;3.28;2.25;;;7.70;99.90;;;;;;5031330;28;20045;-80
2022/09/25 03:48:18;;;;;;;3.50;1.50;;;7.60;99.90;;;;;;5017903;28;20384;-81
2022/09/25 03:50:45;;;;;;;4.82;1.45;;;7.70;99.90;;;;;;4999613;28;20108;-80
2022/09/25 03:53:11;;;;;;;2.72;1.25;;;7.60;99.90;;;;;;5032234;28;20048;-80
2022/09/25 03:55:36;;;;;;;5.03;1.50;;;7.60;99.90;;;;;;5032140;28;20059;-80
2022/09/25 03:58:02;;;;;;;3.38;1.67;;;7.60;99.90;;;;;;5005669;28;20045;-81
2022/09/25 04:00:28;;;;;;;8.98;2.80;;;7.60;99.90;;;;;;5027580;28;20045;-80
2022/09/25 04:02:53;;;;;;;3.63;1.65;;;7.60;99.90;;;;;;5015366;28;20473;-81
2022/09/25 04:05:20;;;;;;;3.85;1.77;;;7.60;99.90;;;;;;5000146;28;20049;-81
2022/09/25 04:07:46;;;;;;;6.35;1.60;;;7.60;99.90;;;;;;5019783;28;20555;-82
2022/09/25 04:10:13;;;;;;;4.97;1.85;;;7.60;99.90;;;;;;5023255;28;20220;-80
2022/09/25 04:12:38;;;;;;;4.03;2.10;;;7.60;99.90;;;;;;5053811;28;20057;-80
2022/09/25 04:15:05;;;;;;;14.25;1.95;;;7.60;99.90;;;;;;5019776;28;20053;-80
2022/09/25 04:17:31;;;;;;;4.10;1.58;;;7.60;99.90;;;;;;5044909;28;20119;-80
2022/09/25 04:19:56;;;;;;;5.85;1.70;;;7.60;99.90;;;;;;5017082;28;20077;-81
2022/09/25 04:22:23;;;;;;;4.40;1.27;;;7.70;99.90;;;;;;5035055;28;20051;-80
2022/09/25 04:24:49;;;;;;;4.68;1.70;;;7.70;99.90;;;;;;5015900;28;20053;-80
2022/09/25 04:27:21;;;;;;;7.13;1.48;;;7.60;99.90;;;;;;5018018;28;20052;-80
2022/09/25 04:29:48;;;;;;;3.58;1.48;;;7.60;99.90;;;;;;5035744;28;20575;-81
2022/09/25 04:34:59;;;;;;;4.20;1.65;;;7.70;99.90;;;;;;5016057;28;20444;-80
2022/09/25 04:37:25;;;;;;;2.75;1.25;;;7.70;99.90;;;;;;4999421;28;20045;-80
2022/09/25 04:39:55;;;;;;;4.35;2.03;;;7.60;99.90;;;;;;5016063;28;20057;-80
2022/09/25 04:42:23;;;;;;;5.80;1.35;;;7.60;99.90;;;;;;5019296;28;20811;-81
2022/09/25 04:44:56;;;;;;;4.68;1.20;;;7.60;99.90;;;;;;5049079;28;20128;-80
2022/09/25 04:47:23;;;;;;;4.22;2.15;;;7.70;99.90;;;;;;5033345;28;20085;-81
2022/09/25 04:49:49;;;;;;;4.03;1.90;;;7.60;99.90;;;;;;5014679;28;20104;-80
2022/09/25 04:52:17;;;;;;;4.15;1.48;;;7.60;99.90;;;;;;5000624;28;20045;-79
2022/09/25 04:54:43;;;;;;;6.60;1.33;;;7.70;99.90;;;;;;5053111;28;20044;-80
2022/09/25 04:57:13;;;;;;;4.47;2.30;;;7.60;99.90;;;;;;5017499;28;20045;-81
2022/09/25 04:59:38;;;;;;;5.95;1.10;;;7.60;99.90;;;;;;5017631;28;20403;-80
2022/09/25 05:02:04;;;;;;;3.60;1.67;;;7.50;99.90;;;;;;5028927;28;20054;-83
2022/09/25 05:04:30;;;;;;;3.97;1.40;;;7.60;99.90;;;;;;5017060;28;20044;-82
2022/09/25 05:06:56;;;;;;;6.68;1.80;;;7.60;99.90;;;;;;5028284;28;20053;-80
2022/09/25 05:09:21;;;;;;;4.05;2.00;;;7.60;99.90;;;;;;5033591;28;20530;-82
2022/09/25 05:11:47;;;;;;;3.15;1.50;;;7.60;99.90;;;;;;5027754;28;20515;-80
2022/09/25 05:14:12;;;;;;;4.22;1.38;;;7.60;99.90;;;;;;5012241;28;20048;-80
2022/09/25 05:16:38;;;;;;;5.68;1.17;;;7.50;99.90;;;;;;5008091;28;20053;-80
2022/09/25 05:19:04;;;;;;;3.58;1.30;;;7.60;99.90;;;;;;5019004;28;20057;-80
2022/09/25 05:21:31;;;;;;;4.38;1.67;;;7.60;99.90;;;;;;5010351;28;20042;-80
2022/09/25 05:23:57;;;;;;;2.50;1.30;;;7.60;99.90;;;;;;5012988;28;20048;-80
2022/09/25 05:26:23;;;;;;;4.57;1.90;;;7.60;99.90;;;;;;5017105;28;20052;-80
2022/09/25 05:28:49;;;;;;;5.63;2.05;;;7.60;99.90;;;;;;5018409;28;20037;-82
2022/09/25 05:31:16;;;;;;;3.88;0.90;;;7.60;99.90;;;;;;5007943;28;20395;-80
2022/09/25 05:33:44;;;;;;;3.70;1.70;;;7.70;99.90;;;;;;5014548;28;20073;-81
2022/09/25 05:36:11;;;;;;;4.03;1.40;;;7.60;99.90;;;;;;4999086;28;20107;-80
2022/09/25 05:38:38;;;;;;;3.22;2.05;;;7.70;99.90;;;;;;5027744;28;20051;-79
2022/09/25 05:41:06;;;;;;;2.00;1.25;;;7.70;99.90;;;;;;5030172;28;20053;-80
2022/09/25 05:43:33;;;;;;;5.97;1.20;;;7.70;99.90;;;;;;5051053;28;20064;-80
2022/09/25 05:45:59;;;;;;;5.72;1.77;;;7.60;99.90;;;;;;5052146;28;20045;-80
2022/09/25 05:48:25;;;;;;;4.05;1.25;;;7.70;99.90;;;;;;5011381;28;20049;-81
2022/09/25 05:50:55;;;;;;;5.78;1.50;;;7.70;99.90;;;;;;4997525;28;20564;-80
2022/09/25 05:53:22;;;;;;;5.22;1.60;;;7.60;99.90;;;;;;5014631;28;20084;-80
2022/09/25 05:55:52;;;;;;;2.83;1.77;;;7.70;99.90;;;;;;5031282;28;20128;-79
2022/09/25 05:58:18;;;;;;;3.30;1.48;;;7.70;99.90;;;;;;5017325;28;20116;-81
2022/09/25 06:00:44;;;;;;;2.22;1.10;;;7.70;99.90;;;;;;5032953;28;20428;-80
2022/09/25 06:03:10;;;;;;;3.58;1.50;;;7.70;99.90;;;;;;5029628;28;20041;-81
2022/09/25 06:05:37;;;;;;;1.80;1.20;;;7.80;99.90;;;;;;5013029;28;20138;-80
2022/09/25 06:08:03;;;;;;;6.65;1.48;;;7.80;99.90;;;;;;4997774;28;20491;-80
2022/09/25 06:10:30;;;;;;;4.97;1.60;;;7.80;99.90;;;;;;5003757;28;20044;-80
2022/09/25 06:12:59;;;;;;;3.20;1.42;;;7.70;99.90;;;;;;5031462;28;20052;-81
2022/09/25 06:15:36;;;;;;;2.33;1.40;;;7.80;99.90;;;;;;4998172;28;20053;-80
2022/09/25 06:18:05;;;;;;;4.10;1.77;;;7.90;99.90;;;;;;5029786;28;20079;-80
2022/09/25 06:20:30;;;;;;;4.40;1.70;;;7.90;99.90;;;;;;5001587;28;20045;-80
2022/09/25 06:22:58;;;;;;;5.13;1.70;;;8.00;99.90;;;;;;5048286;28;20052;-80
2022/09/25 06:25:27;;;;;;;3.58;1.70;;;8.00;99.90;;;;;;5035482;28;20073;-80
2022/09/25 06:27:53;;;;;;;7.53;1.70;;;8.10;99.90;;;;;;5031960;28;20095;-80
2022/09/25 06:30:20;;;;;;;9.23;1.88;;;8.20;99.90;;;;;;5030279;28;20042;-80
2022/09/25 06:32:47;;;;;;;2.95;2.33;;;8.20;99.90;;;;;;4999362;28;20081;-80
2022/09/25 06:35:13;;;;;;;2.80;1.77;;;8.30;99.90;;;;;;5012603;28;20057;-80
2022/09/25 06:37:39;;;;;;;4.10;1.70;;;8.30;99.90;;;;;;5036984;28;20064;-80
2022/09/25 06:40:05;;;;;;;3.95;1.63;;;8.40;99.90;;;;;;5027501;28;20084;-80
2022/09/25 06:42:33;;;;;;;5.70;1.63;;;8.40;99.90;;;;;;5001048;28;20042;-80
2022/09/25 06:45:00;;;;;;;5.95;1.50;;;8.50;99.90;;;;;;5017790;28;20068;-80
2022/09/25 06:47:25;;;;;;;3.55;1.20;;;8.60;99.90;;;;;;5023949;28;20061;-80
2022/09/25 06:49:51;;;;;;;2.83;1.20;;;8.70;99.90;;;;;;5033375;28;20064;-81
2022/09/25 06:52:17;;;;;;;2.38;1.40;;;8.70;99.90;;;;;;5051434;28;20041;-81
2022/09/25 06:54:43;;;;;;;4.95;2.78;;;8.80;99.90;;;;;;5030396;28;20056;-80
2022/09/25 06:57:09;;;;;;;2.63;1.20;;;8.80;99.90;;;;;;5002425;28;20060;-81
2022/09/25 06:59:35;;;;;;;2.97;1.55;;;8.80;99.90;;;;;;5010008;28;20041;-81
2022/09/25 07:03:43;;;;;;;7.15;1.50;;;8.90;99.90;;;;;;5036589;28;20052;-80
2022/09/25 07:04:50;;;;;;;4.43;1.40;;;9.00;99.90;;;;;;5036984;28;20064;-82
2022/09/25 07:07:19;;;;;;;9.25;3.10;;;9.10;99.90;;;;;;4997911;28;20076;-82
2022/09/25 07:09:47;;;;;;;3.05;1.52;;;9.20;99.90;;;;;;5021709;28;20053;-82
2022/09/25 07:12:14;;;;;;;7.03;1.73;;;9.50;99.90;;;;;;5020349;28;20053;-81
2022/09/25 07:14:41;;;;;;;4.75;1.40;;;9.90;99.90;;;;;;5031152;28;20053;-81
2022/09/25 07:17:07;;;;;;;5.63;1.25;;;10.20;99.90;;;;;;5028807;28;20132;-83
2022/09/25 07:19:33;;;;;;;2.55;1.45;;;10.40;99.90;;;;;;5030668;28;20132;-82
2022/09/25 07:21:59;;;;;;;3.03;1.20;;;10.70;99.90;;;;;;5000892;28;20056;-82
2022/09/25 07:24:25;;;;;;;4.63;1.25;;;11.20;99.90;;;;;;5054015;28;20049;-82
2022/09/25 07:26:51;;;;;;;2.15;1.20;;;12.00;99.90;;;;;;5052125;28;20040;-82
2022/09/25 07:29:18;;;;;;;4.93;1.20;;;12.80;99.90;;;;;;5017029;28;20049;-82
2022/09/25 07:31:44;;;;;;;3.38;1.30;;;13.50;99.90;;;;;;5010672;28;20102;-83
2022/09/25 07:34:11;;;;;;;4.13;0.80;;;14.20;99.90;;;;;;5015357;28;20529;-82
2022/09/25 07:36:38;;;;;;;2.33;1.38;;;14.50;99.90;;;;;;5016185;28;20500;-81
2022/09/25 07:39:04;;;;;;;4.85;1.15;;;14.40;99.90;;;;;;5034866;28;20428;-82
2022/09/25 07:41:30;;;;;;;5.40;1.88;;;14.30;99.90;;;;;;5017125;28;20049;-82
2022/09/25 07:43:57;;;;;;;4.95;1.63;;;14.10;99.90;;;;;;5016989;28;20133;-82
2022/09/25 07:46:24;;;;;;;4.68;1.40;;;13.80;99.90;;;;;;5029155;28;20045;-84
2022/09/25 07:48:50;;;;;;;2.88;1.40;;;13.70;99.90;;;;;;5016855;28;20046;-82
2022/09/25 07:51:17;;;;;;;8.75;2.50;;;13.90;99.90;;;;;;5028433;28;20132;-82
2022/09/25 07:53:44;;;;;;;7.93;3.88;;;14.00;99.90;;;;;;5023020;28;20533;-83
2022/09/25 07:56:10;;;;;;;16.05;8.27;;;13.70;99.90;;;;;;5037291;28;20049;-82
2022/09/25 07:58:37;;;;;;;14.88;7.07;;;13.40;99.90;;;;;;5023382;28;20054;-81
2022/09/25 08:01:06;;;;;;;10.95;6.95;;;13.30;99.90;;;;;;5046516;28;20096;-83
2022/09/25 08:03:32;;;;;;;14.00;6.35;;;13.10;99.90;;;;;;5023607;28;20092;-82
2022/09/25 08:06:02;;;;;;;7.05;3.95;;;13.00;99.90;;;;;;5025079;28;20045;-82
2022/09/25 08:08:29;;;;;;;3.22;1.40;;;12.90;99.90;;;;;;5007822;28;20484;-86
2022/09/25 08:11:02;;;;;;;2.72;0.90;;;12.90;99.90;;;;;;5020236;28;20092;-82
2022/09/25 08:13:30;;;;;;;2.55;1.23;;;12.80;99.90;;;;;;5027396;28;20036;-82
2022/09/25 08:15:55;;;;;;;1.67;0.85;;;12.80;99.90;;;;;;5025547;28;20475;-82
2022/09/25 08:18:21;;;;;;;7.82;1.20;;;12.90;99.90;;;;;;5019553;28;20049;-82
2022/09/25 08:20:47;;;;;;;4.43;0.88;;;12.90;99.90;;;;;;5016313;28;20048;-82
2022/09/25 08:23:12;;;;;;;7.53;0.90;;;13.00;99.90;;;;;;5004720;28;20413;-82
2022/09/25 08:25:38;;;;;;;4.15;0.70;;;13.10;99.90;;;;;;5003823;28;20111;-82
2022/09/25 08:28:04;;;;;;;3.03;0.60;;;13.20;99.90;;;;;;5037007;28;20044;-82
2022/09/25 08:30:29;;;;;;;2.80;1.08;;;13.10;99.90;;;;;;5023218;28;20041;-83
2022/09/25 08:32:55;;;;;;;5.25;0.73;;;13.10;99.90;;;;;;5004573;28;20476;-82
2022/09/25 08:35:21;;;;;;;5.97;0.65;;;13.10;99.90;;;;;;5012823;28;20046;-82
2022/09/25 08:37:47;;;;;;;6.13;0.90;;;13.10;99.90;;;;;;5018096;28;20091;-82
2022/09/25 08:40:19;;;;;;;3.25;0.88;;;13.20;99.90;;;;;;5025144;28;20061;-84
2022/09/25 08:42:48;;;;;;;5.38;0.75;;;13.40;99.90;;;;;;5013081;28;20399;-82
2022/09/25 08:51:30;;;;;;;3.03;0.47;;;13.90;99.90;;;;;;5018405;28;20045;-80
2022/09/25 08:53:57;;;;;;;3.60;0.88;;;14.00;99.90;;;;;;5029202;28;20480;-82
2022/09/25 08:56:26;;;;;;;4.88;0.82;;;14.10;99.90;;;;;;5024351;28;20554;-81
2022/09/25 08:59:31;;;;;;;5.10;0.68;;;14.20;99.90;;;;;;5038938;28;20049;-82
2022/09/25 09:02:01;;;;;;;3.10;0.40;;;14.30;99.90;;;;;;4992876;28;20503;-82
2022/09/25 09:04:42;;;;;;;6.63;0.82;;;14.40;99.90;;;;;;5036736;28;20098;-81
2022/09/25 09:07:13;;;;;;;1.45;0.47;;;14.50;99.90;;;;;;5048290;28;20049;-81
2022/09/25 09:10:01;;;;;;;5.23;0.80;;;14.60;99.90;;;;;;5053354;28;20041;-81
2022/09/25 09:12:36;;;;;;;2.78;0.50;;;14.70;99.90;;;;;;5032170;28;20060;-81
2022/09/25 09:15:29;;;;;;;2.40;0.40;;;14.90;99.90;;;;;;5014701;28;20061;-82
2022/09/25 09:17:57;;;;;;;1.92;0.50;;;14.90;99.90;;;;;;5027146;28;20051;-83
2022/09/25 09:20:36;;;;;;;3.97;0.57;;;15.00;99.90;;;;;;5018052;28;20353;-82
2022/09/25 09:23:03;;;;;;;1.77;0.50;;;15.10;99.90;;;;;;5032989;28;20085;-82
2022/09/25 09:25:49;;;;;;;3.92;0.75;;;15.30;99.90;;;;;;5027610;28;20468;-81
2022/09/25 09:28:24;;;;;;;2.50;0.45;;;16.00;99.90;;;;;;5014183;28;20041;-82
2022/09/25 09:31:11;;;;;;;5.72;1.85;;;16.30;99.90;;;;;;5015384;28;20506;-82
2022/09/25 09:34:03;;;;;;;5.13;1.25;;;17.10;99.90;;;;;;5014550;28;20107;-85
2022/09/25 09:36:45;;;;;;;8.52;1.15;;;17.90;99.90;;;;;;4992212;28;20137;-85
2022/09/25 09:39:26;;;;;;;5.63;0.73;;;17.80;99.90;;;;;;5033347;28;20054;-81
2022/09/25 09:42:03;;;;;;;4.30;0.70;;;17.30;99.90;;;;;;5030621;28;20041;-84
2022/09/25 09:44:38;;;;;;;3.38;0.45;;;16.90;99.90;;;;;;5014434;28;20506;-82
2022/09/25 09:47:25;;;;;;;1.85;0.70;;;16.60;99.90;;;;;;5033346;28;20073;-83
2022/09/25 09:50:17;;;;;;;4.13;0.70;;;16.50;99.90;;;;;;5018390;28;20439;-81
2022/09/25 09:52:45;;;;;;;2.00;0.60;;;16.40;99.90;;;;;;5032251;28;20042;-85
2022/09/25 09:55:26;;;;;;;4.60;0.95;;;16.20;99.90;;;;;;5043900;28;20299;-81
2022/09/25 09:57:56;;;;;;;3.13;0.68;;;15.90;99.90;;;;;;5029986;28;20396;-81
2022/09/25 10:00:23;;;;;;;3.72;0.52;;;15.50;99.90;;;;;;5032661;28;20049;-83
2022/09/25 10:03:17;;;;;;;7.82;0.70;;;15.10;99.90;;;;;;5023200;28;20071;-81
2022/09/25 10:05:48;;;;;;;5.78;1.20;;;14.60;99.90;;;;;;5037183;28;20107;-81
2022/09/25 10:08:15;;;;;;;3.30;0.70;;;14.20;99.90;;;;;;5013710;28;20075;-85
2022/09/25 10:10:49;;;;;;;2.80;0.70;;;13.90;99.90;;;;;;5010351;28;20060;-82
2022/09/25 10:13:22;;;;;;;2.00;0.47;;;13.70;99.90;;;;;;5032327;28;20081;-82
2022/09/25 10:15:59;;;;;;;1.58;0.40;;;13.50;99.90;;;;;;4998835;28;20095;-82
2022/09/25 10:18:30;;;;;;;8.95;3.67;;;13.50;99.90;;;;;;5012126;28;20403;-83
2022/09/25 10:21:08;;;;;;;7.10;2.95;;;13.50;99.90;;;;;;5036282;28;20113;-83
2022/09/25 10:23:51;;;;;;;5.88;2.85;;;13.50;99.90;;;;;;5019985;28;20136;-81
2022/09/25 10:26:30;;;;;;;3.28;1.55;;;13.50;99.90;;;;;;5040835;28;20053;-82
2022/09/25 10:29:01;;;;;;;10.93;2.95;;;13.60;99.90;;;;;;5010375;28;20057;-81
2022/09/25 10:31:35;;;;;;;2.85;1.15;;;13.70;99.90;;;;;;5015165;28;20443;-81
2022/09/25 10:34:16;;;;;;;3.45;0.80;;;13.80;99.90;;;;;;4996173;28;20049;-82
2022/09/25 10:36:44;;;;;;;2.38;1.00;;;13.90;99.90;;;;;;5016327;28;20131;-82
2022/09/25 10:39:24;;;;;;;1.63;0.77;;;14.00;99.90;;;;;;5017676;28;20471;-82
2022/09/25 10:41:50;;;;;;;1.50;0.75;;;14.10;99.90;;;;;;5014935;28;20046;-83
2022/09/25 10:44:32;;;;;;;67.80;42.00;;;14.20;99.90;;;;;;5039485;28;20041;-82
2022/09/25 10:50:25;;;;;;;4.05;1.30;;;14.50;99.90;;;;;;5025057;28;20044;-81
2022/09/25 10:52:58;;;;;;;2.08;0.50;;;14.90;99.90;;;;;;5027106;28;20484;-83
2022/09/25 10:55:24;;;;;;;0.70;0.50;;;15.20;99.90;;;;;;5045416;28;20047;-83
2022/09/25 10:58:03;;;;;;;0.90;0.45;;;15.40;99.90;;;;;;5022927;28;20037;-83
2022/09/25 11:00:29;;;;;;;2.40;0.50;;;15.40;99.90;;;;;;4999806;28;20045;-82
2022/09/25 11:02:59;;;;;;;1.80;0.40;;;15.40;99.90;;;;;;5020498;28;20090;-81
2022/09/25 11:05:29;;;;;;;3.75;0.65;;;15.30;99.90;;;;;;5042445;28;20041;-82
2022/09/25 11:08:01;;;;;;;1.05;0.40;;;15.30;99.90;;;;;;5041733;28;20054;-80
2022/09/25 11:10:35;;;;;;;2.83;0.40;;;15.30;99.90;;;;;;5023271;28;20086;-82
2022/09/25 11:13:08;;;;;;;1.63;0.45;;;15.30;99.90;;;;;;5039100;28;20404;-83
2022/09/25 11:15:36;;;;;;;2.15;0.50;;;15.30;99.90;;;;;;5037530;28;20052;-81
2022/09/25 11:18:02;;;;;;;3.65;1.13;;;15.20;99.90;;;;;;5037635;28;20472;-81
2022/09/25 11:20:30;;;;;;;7.45;1.63;;;15.30;99.90;;;;;;5052756;28;20056;-82
2022/09/25 11:23:17;;;;;;;0.98;0.50;;;15.40;99.90;;;;;;5020799;28;20060;-82
2022/09/25 11:25:59;;;;;;;3.42;0.70;;;15.70;99.90;;;;;;5037363;28;20045;-82
2022/09/25 11:28:48;;;;;;;3.92;0.55;;;16.00;99.90;;;;;;5054759;28;20475;-84
2022/09/25 11:31:41;;;;;;;1.55;0.70;;;16.40;99.90;;;;;;5036000;28;20044;-81
2022/09/25 11:34:44;;;;;;;3.42;0.70;;;16.60;99.90;;;;;;5019096;28;20053;-83
2022/09/25 11:37:40;;;;;;;2.35;0.50;;;17.00;99.90;;;;;;5037210;28;20381;-82
2022/09/25 11:43:19;;;;;;;0.82;0.50;;;17.40;99.90;;;;;;5035459;28;20060;-82
2022/09/25 11:45:52;;;;;;;2.40;0.30;;;17.60;99.90;;;;;;5037139;28;20044;-82
2022/09/25 11:48:31;;;;;;;2.17;0.50;;;17.80;99.90;;;;;;5035862;28;20110;-83
2022/09/25 11:51:10;;;;;;;1.73;0.80;;;17.90;99.90;;;;;;5020245;28;20045;-82
2022/09/25 11:53:42;;;;;;;1.02;0.40;;;17.60;99.90;;;;;;5026510;28;20057;-82
2022/09/25 11:56:34;;;;;;;2.35;0.80;;;17.30;99.90;;;;;;5036715;28;20048;-82
2022/09/25 11:59:27;;;;;;;1.77;0.85;;;16.90;99.90;;;;;;4991257;28;20488;-82
2022/09/25 12:02:31;;;;;;;2.92;0.70;;;16.30;99.90;;;;;;5054535;28;20484;-82
2022/09/25 12:05:33;;;;;;;3.08;1.27;;;15.90;99.90;;;;;;5025559;28;20491;-82
2022/09/25 12:08:25;;;;;;;4.43;1.92;;;15.50;99.90;;;;;;4980579;28;20054;-82
2022/09/25 12:11:09;;;;;;;5.40;2.60;;;15.20;99.90;;;;;;5013787;28;20057;-82
2022/09/25 12:13:54;;;;;;;3.95;2.15;;;14.90;99.90;;;;;;5034081;28;20107;-82
2022/09/25 12:16:38;;;;;;;2.53;1.70;;;14.80;99.90;;;;;;5016347;28;20052;-82
2022/09/25 12:19:04;;;;;;;1.23;0.52;;;14.70;99.90;;;;;;5049766;28;20492;-82
2022/09/25 12:22:01;;;;;;;1.67;1.42;;;14.70;99.90;;;;;;5016099;28;20049;-82
2022/09/25 12:24:53;;;;;;;2.17;1.17;;;14.70;99.90;;;;;;4997685;28;20114;-82
2022/09/25 12:27:31;;;;;;;4.53;0.93;;;14.80;99.90;;;;;;5017529;28;20068;-85
2022/09/25 12:30:18;;;;;;;0.70;0.45;;;15.00;99.90;;;;;;5027793;28;20058;-85
2022/09/25 12:33:04;;;;;;;0.73;0.40;;;15.00;99.90;;;;;;5010671;28;20586;-82
2022/09/25 12:36:09;;;;;;;4.47;1.15;;;14.90;99.90;;;;;;5010887;28;20050;-82
2022/09/25 12:38:41;;;;;;;2.00;0.52;;;14.80;99.90;;;;;;4984139;28;20063;-83
2022/09/25 12:41:42;;;;;;;1.17;0.43;;;14.80;99.90;;;;;;4996984;28;20053;-85
2022/09/25 12:44:30;;;;;;;0.88;0.50;;;14.70;99.90;;;;;;5012123;28;20046;-86
2022/09/25 12:47:39;;;;;;;1.45;0.50;;;14.70;99.90;;;;;;5012922;28;20045;-86
2022/09/25 12:50:28;;;;;;;2.83;1.00;;;14.70;99.90;;;;;;4974542;28;20042;-88
2022/09/25 12:53:08;;;;;;;2.40;0.50;;;14.70;99.90;;;;;;5000983;28;20072;-86
2022/09/25 12:55:37;;;;;;;1.55;0.52;;;14.60;99.90;;;;;;5013004;28;20042;-86
2022/09/25 12:58:09;;;;;;;1.33;0.60;;;14.60;99.90;;;;;;5017582;28;20080;-88
2022/09/25 13:00:37;;;;;;;2.40;0.77;;;14.60;99.90;;;;;;5013850;28;20662;-89
2022/09/25 13:03:31;;;;;;;0.47;0.47;;;14.60;99.90;;;;;;4988816;28;20113;-89
2022/09/25 13:06:35;;;;;;;5.65;0.98;;;14.70;99.90;;;;;;4983322;28;20060;-88
2022/09/25 13:09:33;;;;;;;1.98;0.80;;;14.60;99.90;;;;;;5028152;28;20470;-88
2022/09/25 13:12:14;;;;;;;1.85;0.70;;;14.60;99.90;;;;;;5031692;28;20037;-83
2022/09/25 13:15:09;;;;;;;1.95;0.55;;;14.70;99.90;;;;;;5032442;28;20041;-84
2022/09/25 13:17:36;;;;;;;1.83;0.98;;;14.80;99.90;;;;;;5009069;28;20061;-84
2022/09/25 13:20:30;;;;;;;1.35;0.70;;;14.70;99.90;;;;;;5014116;28;20131;-83
2022/09/25 13:23:00;;;;;;;2.95;0.70;;;14.70;99.90;;;;;;5012816;28;20059;-85
2022/09/25 13:25:26;;;;;;;2.30;0.47;;;14.80;99.90;;;;;;5012686;28;20045;-84
2022/09/25 13:27:53;;;;;;;0.85;0.50;;;14.70;99.90;;;;;;5023448;28;20037;-82
2022/09/25 13:30:24;;;;;;;3.90;0.80;;;14.80;99.90;;;;;;5031719;28;20526;-83
2022/09/25 13:32:55;;;;;;;0.53;0.47;;;14.80;99.90;;;;;;5016314;28;20042;-83
2022/09/25 13:35:22;;;;;;;2.75;0.75;;;14.70;99.90;;;;;;5011157;28;20331;-84
2022/09/25 13:37:55;;;;;;;2.63;0.60;;;14.70;99.90;;;;;;5035460;28;20387;-83
2022/09/25 13:43:19;;;;;;;2.20;0.80;;;14.60;99.90;;;;;;5014228;28;20527;-82
2022/09/25 13:46:04;;;;;;;2.97;0.55;;;14.70;99.90;;;;;;5030513;28;20139;-86
2022/09/25 13:48:30;;;;;;;1.17;0.73;;;14.70;99.90;;;;;;5012720;28;20052;-84